Time;durP1;ratioP1;P1;durP2;ratioP2;P2;SDS_P1;SDS_P2;PMS_P1;PMS_P2;Temp;Humidity;BMP_temperature;BMP_pressure;BME280_temperature;BME280_humidity;BME280_pressure;Samples;Min_cycle;Max_cycle;Signal;HPM_P1;HPM_P2
2021/08/12 00:01:21;;;;;;;7.80;6.60;;;18.00;99.90;;;;;;5037626;28;20614;-41
2021/08/12 00:03:46;;;;;;;7.60;6.90;;;17.90;99.90;;;;;;5031689;28;20609;-40
2021/08/12 00:06:13;;;;;;;7.93;7.07;;;18.00;99.90;;;;;;5028672;28;20424;-39
2021/08/12 00:08:38;;;;;;;7.57;6.60;;;18.00;99.90;;;;;;5028059;28;20611;-44
2021/08/12 00:11:05;;;;;;;8.20;6.80;;;17.90;99.90;;;;;;5034410;28;20472;-40
2021/08/12 00:13:31;;;;;;;8.90;7.00;;;17.80;99.90;;;;;;5041851;28;20221;-41
2021/08/12 00:15:56;;;;;;;7.20;6.60;;;17.70;99.90;;;;;;5030356;28;20429;-42
2021/08/12 00:18:22;;;;;;;7.40;6.70;;;17.70;99.90;;;;;;5031377;28;20200;-41
2021/08/12 00:20:48;;;;;;;7.70;7.00;;;17.60;99.90;;;;;;5036597;28;20209;-39
2021/08/12 00:23:13;;;;;;;6.70;6.10;;;17.60;99.90;;;;;;5028151;28;20182;-38
2021/08/12 00:25:39;;;;;;;8.33;7.47;;;17.60;99.90;;;;;;5029772;28;20564;-40
2021/08/12 00:28:05;;;;;;;7.20;6.60;;;17.50;99.90;;;;;;5033743;28;20195;-43
2021/08/12 00:30:31;;;;;;;7.43;6.80;;;17.50;99.90;;;;;;5031052;28;20237;-39
2021/08/12 00:32:57;;;;;;;9.30;7.80;;;17.60;99.90;;;;;;5028306;28;20493;-39
2021/08/12 00:35:22;;;;;;;7.90;7.20;;;17.60;99.90;;;;;;5036125;28;20194;-39
2021/08/12 00:37:48;;;;;;;8.17;7.37;;;17.60;99.90;;;;;;5027937;28;20214;-40
2021/08/12 00:40:16;;;;;;;10.93;7.60;;;17.60;99.90;;;;;;5026081;28;20270;-40
2021/08/12 00:42:42;;;;;;;8.80;7.90;;;17.60;99.90;;;;;;5041849;28;20213;-40
2021/08/12 00:45:08;;;;;;;9.33;7.17;;;17.60;99.90;;;;;;5046372;28;20919;-39
2021/08/12 00:47:34;;;;;;;7.00;6.30;;;17.60;99.90;;;;;;5029325;28;20213;-39
2021/08/12 00:49:59;;;;;;;8.87;7.97;;;17.50;99.90;;;;;;5030550;28;20891;-43
2021/08/12 00:52:25;;;;;;;7.10;6.40;;;17.50;99.90;;;;;;5027960;28;20286;-40
2021/08/12 00:54:51;;;;;;;6.57;5.90;;;17.60;99.90;;;;;;5026877;28;20873;-42
2021/08/12 00:57:19;;;;;;;8.20;7.40;;;17.50;99.90;;;;;;5037945;28;20232;-39
2021/08/12 00:59:45;;;;;;;7.33;6.63;;;17.50;99.90;;;;;;5033263;28;20193;-42
2021/08/12 01:02:11;;;;;;;7.60;6.80;;;17.50;99.90;;;;;;5029006;28;20900;-39
2021/08/12 01:04:51;;;;;;;7.00;6.40;;;17.40;99.90;;;;;;5038426;28;20686;-40
2021/08/12 01:07:25;;;;;;;7.30;6.60;;;17.30;99.90;;;;;;5027368;28;20795;-39
2021/08/12 01:10:22;;;;;;;6.73;6.17;;;17.30;99.90;;;;;;5027952;28;20460;-38
2021/08/12 01:13:03;;;;;;;7.80;7.00;;;17.40;99.90;;;;;;5033833;28;20428;-39
2021/08/12 01:15:37;;;;;;;6.77;6.13;;;17.40;99.90;;;;;;5034075;28;20423;-38
2021/08/12 01:18:11;;;;;;;9.30;7.43;;;17.40;99.90;;;;;;5026901;28;20463;-39
2021/08/12 01:20:47;;;;;;;7.57;6.87;;;17.40;99.90;;;;;;5035618;28;20511;-44
2021/08/12 01:23:15;;;;;;;8.10;6.80;;;17.40;99.90;;;;;;5026917;28;20886;-39
2021/08/12 01:25:43;;;;;;;7.57;6.77;;;17.30;99.90;;;;;;5028036;28;20998;-39
2021/08/12 01:28:19;;;;;;;7.30;6.60;;;17.30;99.90;;;;;;5037400;28;20441;-40
2021/08/12 01:31:13;;;;;;;7.57;6.77;;;17.30;99.90;;;;;;5038945;28;20621;-39
2021/08/12 01:34:07;;;;;;;9.27;7.17;;;17.20;99.90;;;;;;5028208;28;20520;-40
2021/08/12 01:36:35;;;;;;;7.50;6.90;;;17.10;99.90;;;;;;5026474;28;20540;-41
2021/08/12 01:39:06;;;;;;;8.80;7.40;;;17.20;99.90;;;;;;5025737;28;20424;-40
2021/08/12 01:41:32;;;;;;;8.70;6.93;;;17.20;99.90;;;;;;5028308;28;20467;-39
2021/08/12 01:44:00;;;;;;;7.30;6.60;;;17.20;99.90;;;;;;5043608;28;20431;-42
2021/08/12 01:46:27;;;;;;;7.20;6.50;;;17.20;99.90;;;;;;5035496;28;20482;-40
2021/08/12 01:48:54;;;;;;;8.60;7.60;;;17.30;99.90;;;;;;5026107;28;20523;-39
2021/08/12 01:51:22;;;;;;;7.67;6.97;;;17.40;99.90;;;;;;5027013;28;20772;-39
2021/08/12 01:53:50;;;;;;;8.13;7.40;;;17.30;99.90;;;;;;5026695;28;20433;-39
2021/08/12 01:56:17;;;;;;;8.50;7.70;;;17.30;99.90;;;;;;5025453;28;20459;-39
2021/08/12 01:58:43;;;;;;;8.33;7.53;;;17.30;99.90;;;;;;5029473;28;20505;-38
2021/08/12 02:01:10;;;;;;;7.77;7.07;;;17.30;99.90;;;;;;5030626;28;20424;-39
2021/08/12 02:03:36;;;;;;;6.97;6.30;;;17.20;99.90;;;;;;5026646;28;20581;-39
2021/08/12 02:06:03;;;;;;;7.07;6.37;;;17.20;99.90;;;;;;5035013;28;20422;-38
2021/08/12 02:08:30;;;;;;;8.10;7.37;;;17.20;99.90;;;;;;5026458;28;20451;-40
2021/08/12 02:10:56;;;;;;;8.20;7.50;;;17.10;99.90;;;;;;5025887;28;20858;-40
2021/08/12 02:13:24;;;;;;;9.27;7.53;;;17.10;99.90;;;;;;5027954;28;20516;-41
2021/08/12 02:15:51;;;;;;;7.90;7.20;;;17.10;99.90;;;;;;5045595;28;20563;-38
2021/08/12 02:18:16;;;;;;;9.27;8.40;;;17.10;99.90;;;;;;5028384;28;20603;-40
2021/08/12 02:20:49;;;;;;;7.47;6.87;;;17.10;99.90;;;;;;5029920;28;20615;-39
2021/08/12 02:23:27;;;;;;;7.97;7.17;;;17.00;99.90;;;;;;5026279;28;20459;-40
2021/08/12 02:26:05;;;;;;;7.70;6.90;;;16.90;99.90;;;;;;5025531;28;20440;-39
2021/08/12 02:28:32;;;;;;;7.17;6.40;;;16.90;99.90;;;;;;5036120;28;20463;-40
2021/08/12 02:30:59;;;;;;;7.67;6.97;;;17.00;99.90;;;;;;5032692;28;20935;-38
2021/08/12 02:33:32;;;;;;;7.27;6.57;;;17.00;99.90;;;;;;5025895;28;20925;-39
2021/08/12 02:35:58;;;;;;;7.63;6.83;;;16.90;99.90;;;;;;5026285;28;20784;-40
2021/08/12 02:38:25;;;;;;;7.53;6.70;;;16.90;99.90;;;;;;5025823;28;20528;-39
2021/08/12 02:40:53;;;;;;;8.40;6.43;;;16.90;99.90;;;;;;5024098;28;20931;-42
2021/08/12 02:43:21;;;;;;;7.73;6.90;;;16.90;99.90;;;;;;5033500;28;20980;-38
2021/08/12 02:45:48;;;;;;;7.27;6.57;;;16.80;99.90;;;;;;5032832;28;20499;-42
2021/08/12 02:48:14;;;;;;;7.40;6.57;;;16.70;99.90;;;;;;5026033;28;20429;-42
2021/08/12 02:50:43;;;;;;;7.90;7.10;;;16.70;99.90;;;;;;5034244;28;21093;-39
2021/08/12 02:53:09;;;;;;;8.10;7.30;;;16.70;99.90;;;;;;5025156;28;20206;-39
2021/08/12 02:55:36;;;;;;;7.27;6.57;;;16.80;99.90;;;;;;5025285;28;20456;-39
2021/08/12 02:58:03;;;;;;;7.47;6.77;;;16.70;99.90;;;;;;5032183;28;20839;-39
2021/08/12 03:00:30;;;;;;;7.50;6.80;;;16.70;99.90;;;;;;5029880;28;20900;-38
2021/08/12 03:02:57;;;;;;;7.27;6.33;;;16.70;99.90;;;;;;5025597;28;20592;-39
2021/08/12 03:05:24;;;;;;;7.50;6.50;;;16.60;99.90;;;;;;5031320;28;20425;-39
2021/08/12 03:07:50;;;;;;;7.40;6.70;;;16.60;99.90;;;;;;5023922;28;20967;-39
2021/08/12 03:10:19;;;;;;;7.57;6.87;;;16.60;99.90;;;;;;5025368;28;20485;-39
2021/08/12 03:12:46;;;;;;;7.27;6.53;;;16.50;99.90;;;;;;5032586;28;20760;-40
2021/08/12 03:15:13;;;;;;;10.57;7.57;;;16.60;99.90;;;;;;5038006;28;20424;-38
2021/08/12 03:17:39;;;;;;;9.00;7.40;;;16.60;99.90;;;;;;5033390;28;20436;-38
2021/08/12 03:20:06;;;;;;;7.00;6.30;;;16.60;99.90;;;;;;5025771;28;20507;-39
2021/08/12 03:22:33;;;;;;;8.70;6.97;;;16.60;99.90;;;;;;5025532;28;20441;-42
2021/08/12 03:24:58;;;;;;;7.70;7.00;;;16.50;99.90;;;;;;5024971;28;20509;-39
2021/08/12 03:27:24;;;;;;;9.27;7.20;;;16.50;99.90;;;;;;5028852;28;20473;-39
2021/08/12 03:29:51;;;;;;;8.93;8.03;;;16.50;99.90;;;;;;5039878;28;20209;-38
2021/08/12 03:32:20;;;;;;;7.50;6.70;;;16.50;99.90;;;;;;5027125;28;20193;-39
2021/08/12 03:34:46;;;;;;;8.90;8.00;;;16.50;99.90;;;;;;5028742;28;20428;-38
2021/08/12 03:37:13;;;;;;;8.23;7.17;;;16.60;99.90;;;;;;5032170;28;20923;-42
2021/08/12 03:39:38;;;;;;;7.80;7.03;;;16.60;99.90;;;;;;5023990;28;20619;-39
2021/08/12 03:42:05;;;;;;;8.93;7.50;;;16.60;99.90;;;;;;5026312;28;20524;-40
2021/08/12 03:44:30;;;;;;;8.77;7.87;;;16.60;99.90;;;;;;5038568;28;20187;-40
2021/08/12 03:46:56;;;;;;;8.67;7.87;;;16.60;99.90;;;;;;5030981;28;20943;-39
2021/08/12 03:49:22;;;;;;;7.43;6.83;;;16.60;99.90;;;;;;5024544;28;20733;-39
2021/08/12 03:51:47;;;;;;;8.13;7.30;;;16.50;99.90;;;;;;5031556;28;20383;-39
2021/08/12 03:54:13;;;;;;;8.20;7.40;;;16.40;99.90;;;;;;5025118;28;20198;-41
2021/08/12 03:56:39;;;;;;;9.30;8.40;;;16.50;99.90;;;;;;5026496;28;20281;-38
2021/08/12 03:59:05;;;;;;;7.87;7.07;;;16.50;99.90;;;;;;5033952;28;20430;-38
2021/08/12 04:01:31;;;;;;;7.70;7.00;;;16.50;99.90;;;;;;5040682;28;20193;-39
2021/08/12 04:03:57;;;;;;;9.30;7.70;;;16.40;99.90;;;;;;5025813;28;20190;-39
2021/08/12 04:06:23;;;;;;;11.23;7.60;;;16.50;99.90;;;;;;5031025;28;20425;-42
2021/08/12 04:08:49;;;;;;;9.20;8.10;;;16.50;99.90;;;;;;5028019;28;20579;-40
2021/08/12 04:11:14;;;;;;;7.83;7.13;;;16.50;99.90;;;;;;5029278;28;20359;-39
2021/08/12 04:13:40;;;;;;;8.27;7.33;;;16.40;99.90;;;;;;5045677;28;20193;-39
2021/08/12 04:16:06;;;;;;;8.87;7.93;;;16.40;99.90;;;;;;5042209;28;20242;-38
2021/08/12 04:18:32;;;;;;;6.73;6.00;;;16.40;99.90;;;;;;5029632;28;20198;-39
2021/08/12 04:20:57;;;;;;;8.20;7.40;;;16.50;99.90;;;;;;5038459;28;20458;-39
2021/08/12 04:23:23;;;;;;;8.10;6.87;;;16.50;99.90;;;;;;5028018;28;20628;-38
2021/08/12 04:25:51;;;;;;;7.73;7.03;;;16.50;99.90;;;;;;5028437;28;20583;-44
2021/08/12 04:28:17;;;;;;;8.20;7.40;;;16.50;99.90;;;;;;5030076;28;20294;-38
2021/08/12 04:30:43;;;;;;;7.97;7.13;;;16.50;99.90;;;;;;5037274;28;20558;-39
2021/08/12 04:33:08;;;;;;;9.53;6.50;;;16.50;99.90;;;;;;5028170;28;20602;-39
2021/08/12 04:35:34;;;;;;;7.90;7.10;;;16.50;99.90;;;;;;5034576;28;20209;-39
2021/08/12 04:38:00;;;;;;;7.23;6.57;;;16.50;99.90;;;;;;5029147;28;20564;-39
2021/08/12 04:40:26;;;;;;;7.90;7.20;;;16.50;99.90;;;;;;5026879;28;20194;-39
2021/08/12 04:42:53;;;;;;;7.70;7.00;;;16.40;99.90;;;;;;5028173;28;20197;-40
2021/08/12 04:45:20;;;;;;;8.90;8.00;;;16.40;99.90;;;;;;5040916;28;20763;-39
2021/08/12 04:47:46;;;;;;;7.93;7.23;;;16.40;99.90;;;;;;5039132;28;20809;-39
2021/08/12 04:50:14;;;;;;;8.10;7.30;;;16.40;99.90;;;;;;5029823;28;20463;-38
2021/08/12 04:52:40;;;;;;;8.83;8.03;;;16.40;99.90;;;;;;5027730;28;20429;-38
2021/08/12 04:55:08;;;;;;;9.07;7.97;;;16.40;99.90;;;;;;5027496;28;20427;-39
2021/08/12 04:57:34;;;;;;;9.00;8.10;;;16.40;99.90;;;;;;5032984;28;20221;-40
2021/08/12 04:59:59;;;;;;;8.63;7.83;;;16.40;99.90;;;;;;5038062;28;20460;-40
2021/08/12 05:02:26;;;;;;;9.07;7.83;;;16.40;99.90;;;;;;5030849;28;20190;-42
2021/08/12 05:04:52;;;;;;;8.70;7.90;;;16.40;99.90;;;;;;5027138;28;20218;-39
2021/08/12 05:07:18;;;;;;;9.10;8.20;;;16.40;99.90;;;;;;5040040;28;20463;-39
2021/08/12 05:09:43;;;;;;;8.63;7.50;;;16.40;99.90;;;;;;5027734;28;20220;-41
2021/08/12 05:12:09;;;;;;;8.87;7.97;;;16.50;99.90;;;;;;5026931;28;20194;-39
2021/08/12 05:14:35;;;;;;;9.53;7.43;;;16.50;99.90;;;;;;5034912;28;20252;-42
2021/08/12 05:17:01;;;;;;;7.50;6.80;;;16.50;99.90;;;;;;5030191;28;20201;-41
2021/08/12 05:19:26;;;;;;;8.20;7.50;;;16.50;99.90;;;;;;5025014;28;20355;-41
2021/08/12 05:21:52;;;;;;;9.17;8.00;;;16.50;99.90;;;;;;5036118;28;20194;-40
2021/08/12 05:24:18;;;;;;;9.20;8.40;;;16.60;99.90;;;;;;5027309;28;20193;-39
2021/08/12 05:26:44;;;;;;;8.07;7.37;;;16.60;99.90;;;;;;5025307;28;20429;-39
2021/08/12 05:29:10;;;;;;;14.80;8.53;;;16.60;99.90;;;;;;5036982;28;20210;-38
2021/08/12 05:31:35;;;;;;;8.80;7.90;;;16.60;99.90;;;;;;5044947;28;20200;-38
2021/08/12 05:34:01;;;;;;;9.20;8.40;;;16.60;99.90;;;;;;5033713;28;20459;-38
2021/08/12 05:36:27;;;;;;;9.87;8.57;;;16.60;99.90;;;;;;5031000;28;20794;-38
2021/08/12 05:38:57;;;;;;;10.60;9.27;;;16.60;99.90;;;;;;5026553;28;20217;-39
2021/08/12 05:41:22;;;;;;;11.87;9.10;;;16.60;99.90;;;;;;5026602;28;20549;-39
2021/08/12 05:43:48;;;;;;;10.90;8.37;;;16.70;99.90;;;;;;5037861;28;20436;-39
2021/08/12 05:46:14;;;;;;;9.00;8.20;;;16.70;99.90;;;;;;5039662;28;20197;-39
2021/08/12 05:48:39;;;;;;;10.57;9.50;;;16.70;99.90;;;;;;5042379;28;20193;-39
2021/08/12 05:51:05;;;;;;;11.43;10.20;;;16.80;99.90;;;;;;5033570;28;20199;-38
2021/08/12 05:53:31;;;;;;;11.33;9.93;;;16.80;99.90;;;;;;5026792;28;20186;-38
2021/08/12 05:55:57;;;;;;;12.03;10.80;;;16.90;99.90;;;;;;5026827;28;20190;-38
2021/08/12 05:58:23;;;;;;;10.03;9.03;;;17.00;99.90;;;;;;5027118;28;20715;-38
2021/08/12 06:00:48;;;;;;;10.07;9.07;;;17.00;99.90;;;;;;5039581;28;20423;-41
2021/08/12 06:03:15;;;;;;;11.40;10.30;;;17.10;99.90;;;;;;5028418;28;20782;-41
2021/08/12 06:05:41;;;;;;;11.93;9.40;;;17.20;99.90;;;;;;5030148;28;20194;-39
2021/08/12 06:08:08;;;;;;;11.23;9.60;;;17.40;99.90;;;;;;5026070;28;20453;-43
2021/08/12 06:10:35;;;;;;;11.30;10.10;;;17.60;99.90;;;;;;5025831;28;20530;-38
2021/08/12 06:13:01;;;;;;;13.17;11.03;;;17.70;99.90;;;;;;5027219;28;20879;-39
2021/08/12 06:15:28;;;;;;;11.60;10.40;;;17.80;99.90;;;;;;5037553;28;20444;-38
2021/08/12 06:17:54;;;;;;;13.70;9.63;;;17.90;99.90;;;;;;5042903;28;20546;-41
2021/08/12 06:20:21;;;;;;;11.83;9.23;;;18.00;99.90;;;;;;5025648;28;20494;-38
2021/08/12 06:22:52;;;;;;;9.97;9.03;;;18.20;99.90;;;;;;5030483;28;20990;-39
2021/08/12 06:25:18;;;;;;;10.97;9.67;;;18.30;99.90;;;;;;5025497;28;20955;-39
2021/08/12 06:27:44;;;;;;;10.90;9.77;;;18.50;99.90;;;;;;5025466;28;20437;-42
2021/08/12 06:30:11;;;;;;;9.30;8.40;;;18.60;99.90;;;;;;5042705;28;20456;-38
2021/08/12 06:32:37;;;;;;;10.20;9.00;;;18.70;99.90;;;;;;5036653;28;20221;-39
2021/08/12 06:35:06;;;;;;;9.87;8.87;;;18.80;99.90;;;;;;5025526;28;20432;-38
2021/08/12 06:37:50;;;;;;;9.80;8.80;;;19.00;99.90;;;;;;5039583;28;20827;-39
2021/08/12 06:40:21;;;;;;;7.57;6.87;;;19.10;99.90;;;;;;5033827;28;20861;-39
2021/08/12 06:42:48;;;;;;;8.73;8.00;;;19.20;99.90;;;;;;5030809;28;20839;-41
2021/08/12 06:45:15;;;;;;;10.07;9.07;;;19.40;99.90;;;;;;5033917;28;21210;-39
2021/08/12 06:47:41;;;;;;;10.30;9.30;;;19.60;99.90;;;;;;5037817;28;20429;-40
2021/08/12 06:50:08;;;;;;;10.70;8.40;;;19.70;99.90;;;;;;5030320;28;20494;-39
2021/08/12 06:52:34;;;;;;;9.30;8.40;;;19.80;99.90;;;;;;5026005;28;20425;-41
2021/08/12 06:55:00;;;;;;;9.77;8.87;;;19.90;99.90;;;;;;5033006;28;20439;-41
2021/08/12 06:57:26;;;;;;;10.07;8.13;;;19.90;99.90;;;;;;5024926;28;20569;-39
2021/08/12 06:59:52;;;;;;;9.60;8.40;;;19.90;99.90;;;;;;5032429;28;20313;-40
2021/08/12 07:02:17;;;;;;;9.50;8.20;;;19.90;99.90;;;;;;5036874;28;20194;-39
2021/08/12 07:04:43;;;;;;;9.80;8.80;;;19.90;99.90;;;;;;5038854;28;20350;-41
2021/08/12 07:07:09;;;;;;;10.80;8.70;;;19.90;99.90;;;;;;5031582;28;20186;-41
2021/08/12 07:09:34;;;;;;;10.30;8.83;;;20.00;99.90;;;;;;5024636;28;20233;-42
2021/08/12 07:12:00;;;;;;;9.47;8.57;;;20.10;99.90;;;;;;5027022;28;20191;-45
2021/08/12 07:14:26;;;;;;;8.93;7.83;;;20.10;99.90;;;;;;5027268;28;20197;-40
2021/08/12 07:16:51;;;;;;;8.97;7.97;;;20.20;99.90;;;;;;5036039;28;20186;-40
2021/08/12 07:19:17;;;;;;;8.80;7.90;;;20.20;99.90;;;;;;5034055;28;20194;-40
2021/08/12 07:21:43;;;;;;;8.23;7.43;;;20.20;99.90;;;;;;5027550;28;20197;-46
2021/08/12 07:24:08;;;;;;;8.40;7.60;;;20.30;99.90;;;;;;5025624;28;20654;-41
2021/08/12 07:26:35;;;;;;;9.50;8.50;;;20.40;99.90;;;;;;5025112;28;20189;-43
2021/08/12 07:29:02;;;;;;;8.80;8.00;;;20.40;99.90;;;;;;5030802;28;20221;-44
2021/08/12 07:31:27;;;;;;;8.83;7.93;;;20.50;99.90;;;;;;5037443;28;20477;-40
2021/08/12 07:33:53;;;;;;;8.50;7.70;;;20.60;99.90;;;;;;5027834;28;20912;-40
2021/08/12 07:36:19;;;;;;;9.10;8.20;;;20.70;99.90;;;;;;5028091;28;20313;-40
2021/08/12 07:38:45;;;;;;;8.37;7.53;;;20.80;99.90;;;;;;5034079;28;20190;-41
2021/08/12 07:41:11;;;;;;;8.17;7.47;;;20.90;99.90;;;;;;5027773;28;20201;-42
2021/08/12 07:43:37;;;;;;;10.50;8.80;;;21.00;99.90;;;;;;5034919;28;20908;-40
2021/08/12 07:46:04;;;;;;;9.60;8.10;;;21.10;99.90;;;;;;5038058;28;20453;-41
2021/08/12 07:48:29;;;;;;;8.73;7.40;;;21.10;99.90;;;;;;5033681;28;20435;-40
2021/08/12 07:50:55;;;;;;;8.00;7.30;;;21.10;99.90;;;;;;5028732;28;20464;-41
2021/08/12 07:53:21;;;;;;;8.83;7.00;;;21.10;99.90;;;;;;5034867;28;20248;-40
2021/08/12 07:55:47;;;;;;;8.80;8.00;;;21.10;99.90;;;;;;5028986;28;20458;-42
2021/08/12 07:58:13;;;;;;;11.80;7.93;;;21.20;99.90;;;;;;5028159;28;20218;-41
2021/08/12 08:00:38;;;;;;;8.17;7.47;;;21.20;99.90;;;;;;5021892;28;20467;-41
2021/08/12 08:03:04;;;;;;;8.00;7.30;;;21.20;99.90;;;;;;5045309;28;20200;-41
2021/08/12 08:05:30;;;;;;;8.63;6.93;;;21.20;99.90;;;;;;5029460;28;20194;-39
2021/08/12 08:07:56;;;;;;;8.53;7.40;;;21.20;99.90;;;;;;5030251;28;20214;-42
2021/08/12 08:10:24;;;;;;;8.10;7.27;;;21.30;99.90;;;;;;5028953;28;20212;-40
2021/08/12 08:12:50;;;;;;;6.90;6.30;;;21.30;99.90;;;;;;5028375;28;20433;-39
2021/08/12 08:15:18;;;;;;;8.00;7.20;;;21.40;99.90;;;;;;5035381;28;20429;-45
2021/08/12 08:17:44;;;;;;;8.07;7.27;;;21.40;99.90;;;;;;5035522;28;20433;-40
2021/08/12 08:20:11;;;;;;;7.63;6.17;;;21.40;99.90;;;;;;5027833;28;20832;-40
2021/08/12 08:22:37;;;;;;;7.80;7.00;;;21.40;99.90;;;;;;5037985;28;20331;-40
2021/08/12 08:25:04;;;;;;;7.00;5.80;;;21.50;99.90;;;;;;5028180;28;20433;-40
2021/08/12 08:27:30;;;;;;;5.87;5.37;;;21.50;99.90;;;;;;5028797;28;20483;-39
2021/08/12 08:29:55;;;;;;;7.47;6.77;;;21.50;99.90;;;;;;5033989;28;20974;-40
2021/08/12 08:32:21;;;;;;;7.90;6.33;;;21.60;99.90;;;;;;5042136;28;20233;-39
2021/08/12 08:34:47;;;;;;;7.10;6.40;;;21.60;99.90;;;;;;5034864;28;20586;-44
2021/08/12 08:37:14;;;;;;;7.50;6.70;;;21.70;99.90;;;;;;5048166;28;20198;-42
2021/08/12 08:39:40;;;;;;;8.73;6.67;;;21.70;99.90;;;;;;5025631;28;20452;-40
2021/08/12 08:42:07;;;;;;;8.87;6.13;;;21.80;99.90;;;;;;5028268;28;20433;-42
2021/08/12 08:44:37;;;;;;;7.03;6.33;;;21.80;99.90;;;;;;5040242;28;20448;-44
2021/08/12 08:47:08;;;;;;;6.23;5.70;;;21.80;99.90;;;;;;5038643;28;20761;-39
2021/08/12 08:49:38;;;;;;;6.37;5.77;;;21.80;99.90;;;;;;5037162;28;20711;-39
2021/08/12 08:52:05;;;;;;;7.73;6.40;;;21.90;99.90;;;;;;5028782;28;20462;-42
2021/08/12 08:54:32;;;;;;;7.43;6.73;;;21.90;99.90;;;;;;5027843;28;20841;-42
2021/08/12 08:56:59;;;;;;;7.10;6.43;;;22.00;99.90;;;;;;5027897;28;20432;-42
2021/08/12 08:59:26;;;;;;;7.67;5.90;;;22.00;99.90;;;;;;5034744;28;20475;-41
2021/08/12 09:01:52;;;;;;;6.80;6.10;;;22.00;99.90;;;;;;5031048;28;20416;-42
2021/08/12 09:04:18;;;;;;;7.87;5.87;;;22.10;99.90;;;;;;5030031;28;20508;-42
2021/08/12 09:06:44;;;;;;;7.97;7.27;;;22.10;99.90;;;;;;5027349;28;20229;-42
2021/08/12 09:09:10;;;;;;;9.30;6.90;;;22.20;99.90;;;;;;5036332;28;20477;-42
2021/08/12 09:11:37;;;;;;;8.20;5.83;;;22.20;99.90;;;;;;5028375;28;20552;-41
2021/08/12 09:14:41;;;;;;;6.10;5.53;;;22.30;99.90;;;;;;5026839;28;20433;-41
2021/08/12 09:17:19;;;;;;;8.10;6.90;;;22.30;99.90;;;;;;5036381;28;20988;-42
2021/08/12 09:20:10;;;;;;;7.37;6.67;;;22.40;99.90;;;;;;5026542;28;20526;-41
2021/08/12 09:23:05;;;;;;;7.07;6.43;;;22.50;99.90;;;;;;5028820;28;20517;-39
2021/08/12 09:25:49;;;;;;;7.43;6.67;;;22.60;99.90;;;;;;5027423;28;20873;-40
2021/08/12 09:28:27;;;;;;;10.27;8.17;;;22.60;99.90;;;;;;5027142;28;20490;-42
2021/08/12 09:31:01;;;;;;;7.77;7.07;;;22.70;99.90;;;;;;5037802;28;20497;-39
2021/08/12 09:33:40;;;;;;;9.20;8.30;;;22.70;99.90;;;;;;5040936;28;20933;-42
2021/08/12 09:36:24;;;;;;;9.97;8.97;;;22.80;99.90;;;;;;5029833;28;20436;-40
2021/08/12 09:39:07;;;;;;;8.83;7.93;;;22.80;99.90;;;;;;5027869;28;20509;-40
2021/08/12 09:41:40;;;;;;;9.63;8.73;;;22.90;99.90;;;;;;5026807;28;20432;-42
2021/08/12 09:44:06;;;;;;;9.03;8.13;;;23.00;99.90;;;;;;5035517;28;20458;-39
2021/08/12 09:46:34;;;;;;;8.13;7.00;;;23.00;99.90;;;;;;5032272;28;20686;-41
2021/08/12 09:49:01;;;;;;;8.73;7.83;;;23.10;99.90;;;;;;5035257;28;20425;-44
2021/08/12 09:51:34;;;;;;;10.40;6.97;;;23.10;99.90;;;;;;5027214;28;20425;-41
2021/08/12 09:54:04;;;;;;;8.70;7.10;;;23.20;99.90;;;;;;5036078;28;20433;-42
2021/08/12 09:56:29;;;;;;;9.20;8.00;;;23.30;99.90;;;;;;5026365;28;20816;-44
2021/08/12 09:59:07;;;;;;;7.77;6.97;;;23.40;99.90;;;;;;5025542;28;20428;-41
2021/08/12 10:01:33;;;;;;;8.13;7.33;;;23.50;99.90;;;;;;5036536;28;20186;-39
2021/08/12 10:04:15;;;;;;;8.73;7.93;;;23.50;99.90;;;;;;5033307;28;20421;-41
2021/08/12 10:06:41;;;;;;;9.40;7.43;;;23.60;99.90;;;;;;5026413;28;20436;-43
2021/08/12 10:09:17;;;;;;;9.17;7.17;;;23.70;99.90;;;;;;5028805;28;20472;-39
2021/08/12 10:11:43;;;;;;;8.80;7.90;;;23.70;99.90;;;;;;5027161;28;20212;-42
2021/08/12 10:14:09;;;;;;;8.20;7.30;;;23.80;99.90;;;;;;5025766;28;20493;-43
2021/08/12 10:16:38;;;;;;;10.40;8.37;;;23.80;99.90;;;;;;5043284;28;20476;-42
2021/08/12 10:19:08;;;;;;;10.03;8.50;;;23.80;99.90;;;;;;5041036;28;20485;-40
2021/08/12 10:21:38;;;;;;;8.53;7.63;;;23.80;99.90;;;;;;5026393;28;20832;-40
2021/08/12 10:24:04;;;;;;;8.57;7.80;;;23.90;99.90;;;;;;5026572;28;20773;-40
2021/08/12 10:26:32;;;;;;;8.50;7.70;;;24.00;99.90;;;;;;5026143;28;20425;-40
2021/08/12 10:29:15;;;;;;;9.50;8.60;;;24.00;99.90;;;;;;5025314;28;20425;-39
2021/08/12 10:31:46;;;;;;;8.67;7.87;;;24.10;99.90;;;;;;5033165;28;20485;-42
2021/08/12 10:34:13;;;;;;;9.97;8.70;;;24.10;99.90;;;;;;5038663;28;20969;-39
2021/08/12 10:36:39;;;;;;;8.50;7.70;;;24.20;99.90;;;;;;5026209;28;20421;-40
2021/08/12 10:39:06;;;;;;;8.33;6.77;;;24.20;99.90;;;;;;5033829;28;20953;-43
2021/08/12 10:41:34;;;;;;;7.97;7.17;;;24.20;99.90;;;;;;5025631;28;20464;-39
2021/08/12 10:44:00;;;;;;;7.00;6.37;;;24.20;99.90;;;;;;5035321;28;20529;-42
2021/08/12 10:46:38;;;;;;;7.40;6.70;;;24.30;99.90;;;;;;5028275;28;20441;-40
2021/08/12 10:49:22;;;;;;;14.83;8.43;;;24.30;99.90;;;;;;5034939;28;20189;-42
2021/08/12 10:52:00;;;;;;;11.20;8.03;;;24.30;99.90;;;;;;5025486;28;20452;-43
2021/08/12 10:54:27;;;;;;;8.97;8.00;;;24.20;99.90;;;;;;5031436;28;20467;-42
2021/08/12 10:57:14;;;;;;;8.23;7.43;;;24.30;99.90;;;;;;5025094;28;20420;-41
2021/08/12 10:59:43;;;;;;;8.93;8.03;;;24.40;99.90;;;;;;5024579;28;20445;-42
2021/08/12 11:02:27;;;;;;;7.47;6.73;;;24.40;99.90;;;;;;5026920;28;20475;-44
2021/08/12 11:04:55;;;;;;;7.87;6.90;;;24.40;99.90;;;;;;5027515;28;20432;-40
2021/08/12 11:07:39;;;;;;;7.73;6.27;;;24.50;99.90;;;;;;5025056;28;20433;-43
2021/08/12 11:10:10;;;;;;;6.37;5.67;;;24.50;99.90;;;;;;5028378;28;20470;-43
2021/08/12 11:13:00;;;;;;;5.83;5.20;;;24.60;99.90;;;;;;5025839;28;20441;-44
2021/08/12 11:15:40;;;;;;;7.97;6.50;;;24.60;99.90;;;;;;5033534;28;20803;-41
2021/08/12 11:18:08;;;;;;;7.43;5.50;;;24.70;99.90;;;;;;5035943;28;20416;-39
2021/08/12 11:20:37;;;;;;;6.90;6.27;;;24.70;99.90;;;;;;5030699;28;20429;-41
2021/08/12 11:23:18;;;;;;;7.03;6.37;;;24.80;99.90;;;;;;5030043;28;20437;-42
2021/08/12 11:26:09;;;;;;;6.97;6.27;;;24.80;99.90;;;;;;5038712;28;20966;-41
2021/08/12 11:28:41;;;;;;;7.03;5.90;;;24.90;99.90;;;;;;5026924;28;20443;-40
2021/08/12 11:31:07;;;;;;;7.53;6.73;;;24.90;99.90;;;;;;5031270;28;20504;-42
2021/08/12 11:33:43;;;;;;;9.10;7.03;;;25.00;99.90;;;;;;5035868;28;20467;-40
2021/08/12 11:36:15;;;;;;;7.57;6.33;;;25.00;99.90;;;;;;5030996;28;20190;-40
2021/08/12 11:38:43;;;;;;;6.80;6.10;;;25.00;99.90;;;;;;5032726;28;20428;-40
2021/08/12 11:41:09;;;;;;;6.67;5.67;;;25.10;99.90;;;;;;5028963;28;20432;-42
2021/08/12 11:43:39;;;;;;;6.70;5.37;;;25.10;99.90;;;;;;5035446;28;20431;-43
2021/08/12 11:46:05;;;;;;;5.47;5.00;;;25.10;99.90;;;;;;5044264;28;20440;-41
2021/08/12 11:48:34;;;;;;;6.17;5.23;;;25.10;99.90;;;;;;5045337;28;20420;-40
2021/08/12 11:51:01;;;;;;;6.20;5.60;;;25.10;99.90;;;;;;5038276;28;20469;-42
2021/08/12 11:53:41;;;;;;;8.10;6.37;;;25.00;99.90;;;;;;5030122;28;20429;-43
2021/08/12 11:56:13;;;;;;;6.50;5.90;;;25.00;99.90;;;;;;5029029;28;20791;-44
2021/08/12 11:58:41;;;;;;;6.90;6.00;;;24.90;99.90;;;;;;5028588;28;20444;-42
2021/08/12 12:01:12;;;;;;;7.50;6.77;;;24.90;99.90;;;;;;5029827;28;20433;-41
2021/08/12 12:03:38;;;;;;;6.13;5.53;;;24.80;99.90;;;;;;5043053;28;20788;-40
2021/08/12 12:06:03;;;;;;;6.80;6.07;;;24.80;99.90;;;;;;5032432;28;20455;-46
2021/08/12 12:08:29;;;;;;;6.63;4.97;;;24.80;99.90;;;;;;5029631;28;20228;-43
2021/08/12 12:11:09;;;;;;;6.07;4.97;;;24.80;99.90;;;;;;5037063;28;20736;-45
2021/08/12 12:13:35;;;;;;;7.63;5.70;;;24.70;99.90;;;;;;5029009;28;20210;-43
2021/08/12 12:16:08;;;;;;;6.07;5.47;;;24.70;99.90;;;;;;5029392;28;20475;-41
2021/08/12 12:18:42;;;;;;;7.00;5.63;;;24.70;99.90;;;;;;5040706;28;20562;-42
2021/08/12 12:21:18;;;;;;;5.87;5.27;;;24.60;99.90;;;;;;5031921;28;20433;-46
2021/08/12 12:23:48;;;;;;;6.87;5.63;;;24.60;99.90;;;;;;5030987;28;20994;-43
2021/08/12 12:26:24;;;;;;;7.50;5.33;;;24.60;99.90;;;;;;5031267;28;20439;-42
2021/08/12 12:28:51;;;;;;;5.90;5.30;;;24.50;99.90;;;;;;5028254;28;20440;-46
2021/08/12 12:31:19;;;;;;;6.50;5.43;;;24.60;99.90;;;;;;5028643;28;20817;-44
2021/08/12 12:33:56;;;;;;;5.40;4.90;;;24.50;99.90;;;;;;5032576;28;20466;-44
2021/08/12 12:36:22;;;;;;;5.90;5.30;;;24.50;99.90;;;;;;5038757;28;20492;-39
2021/08/12 12:38:50;;;;;;;6.10;5.50;;;24.50;99.90;;;;;;5029841;28;20484;-44
2021/08/12 12:41:16;;;;;;;8.20;5.20;;;24.50;99.90;;;;;;5026597;28;20240;-41
2021/08/12 12:43:42;;;;;;;5.90;4.63;;;24.50;99.90;;;;;;5035350;28;20458;-41
2021/08/12 12:46:08;;;;;;;8.13;4.70;;;24.40;99.90;;;;;;5046001;28;20460;-45
2021/08/12 12:48:38;;;;;;;10.60;5.10;;;24.40;99.90;;;;;;5043966;28;20276;-40
2021/08/12 12:51:06;;;;;;;6.47;5.30;;;24.40;99.90;;;;;;5027620;28;20242;-45
2021/08/12 12:53:42;;;;;;;6.17;5.27;;;24.40;99.90;;;;;;5027391;28;20429;-41